Time;durP1;ratioP1;P1;durP2;ratioP2;P2;SDS_P1;SDS_P2;PMS_P1;PMS_P2;Temp;Humidity;BMP_temperature;BMP_pressure;BME280_temperature;BME280_humidity;BME280_pressure;Samples;Min_cycle;Max_cycle;Signal;HPM_P1;HPM_P2
2022/06/02 00:02:10;;;;;;;19.70;10.50;;;5.90;99.90;;;;;;5033670;28;20090;-58
2022/06/02 00:04:48;;;;;;;42.05;13.20;;;5.80;99.90;;;;;;5032514;28;20077;-58
2022/06/02 00:07:32;;;;;;;21.52;11.20;;;5.90;99.90;;;;;;5032240;28;20048;-58
2022/06/02 00:10:12;;;;;;;17.15;10.95;;;5.80;99.90;;;;;;5025171;28;20413;-59
2022/06/02 00:12:52;;;;;;;20.35;11.13;;;5.80;99.90;;;;;;5013658;28;20046;-58
2022/06/02 00:15:23;;;;;;;20.13;11.68;;;5.70;99.90;;;;;;5013788;28;20038;-58
2022/06/02 00:17:58;;;;;;;22.13;10.82;;;6.00;99.90;;;;;;5013399;28;20042;-57
2022/06/02 00:20:40;;;;;;;22.58;11.80;;;5.50;99.90;;;;;;5013659;28;20120;-58
2022/06/02 00:23:29;;;;;;;20.98;11.38;;;5.70;99.90;;;;;;5013736;28;20036;-58
2022/06/02 00:26:01;;;;;;;18.90;11.15;;;5.70;99.90;;;;;;5013770;28;20045;-58
2022/06/02 00:28:26;;;;;;;19.00;11.30;;;5.40;99.90;;;;;;5013412;28;20454;-57
2022/06/02 00:31:10;;;;;;;28.23;12.93;;;5.50;99.90;;;;;;5013671;28;20045;-58
2022/06/02 00:33:49;;;;;;;21.88;11.57;;;5.60;99.90;;;;;;5013632;28;20429;-58
2022/06/02 00:36:21;;;;;;;28.85;13.00;;;5.50;99.90;;;;;;5013383;28;20497;-58
2022/06/02 00:38:47;;;;;;;24.08;12.32;;;5.60;99.90;;;;;;5013366;28;20048;-58
2022/06/02 00:41:16;;;;;;;27.17;12.82;;;5.60;99.90;;;;;;5013638;28;20424;-59
2022/06/02 00:43:53;;;;;;;28.52;13.85;;;5.50;99.90;;;;;;5013213;28;20113;-58
2022/06/02 00:46:41;;;;;;;33.70;13.30;;;5.60;99.90;;;;;;5013262;28;20038;-58
2022/06/02 00:49:54;;;;;;;21.27;12.85;;;5.60;99.90;;;;;;5012047;28;20062;-58
2022/06/02 00:52:30;;;;;;;29.88;13.98;;;5.60;99.90;;;;;;5011159;28;20050;-58
2022/06/02 00:58:50;;;;;;;29.65;13.75;;;5.60;99.90;;;;;;5015224;28;20061;-59
2022/06/02 01:01:25;;;;;;;26.23;13.60;;;5.60;99.90;;;;;;5016664;28;20117;-59
2022/06/02 01:03:55;;;;;;;27.75;13.85;;;5.40;99.90;;;;;;5016648;28;20493;-58
2022/06/02 01:06:23;;;;;;;38.67;16.27;;;5.70;99.90;;;;;;5016832;28;20108;-59
2022/06/02 01:09:14;;;;;;;28.38;13.65;;;5.30;99.90;;;;;;5015104;28;20058;-58
2022/06/02 01:12:09;;;;;;;30.33;13.60;;;5.50;99.90;;;;;;5016686;28;20085;-57
2022/06/02 01:14:41;;;;;;;35.45;14.10;;;5.50;99.90;;;;;;5016522;28;20042;-57
2022/06/02 01:17:16;;;;;;;;;;;5.60;99.90;;;;;;5016462;28;20050;-58
2022/06/02 01:19:44;;;;;;;38.08;15.02;;;5.40;99.90;;;;;;5016207;28;20015;-58
2022/06/02 01:22:30;;;;;;;40.10;15.52;;;5.60;99.90;;;;;;5016509;28;20049;-57
2022/06/02 01:25:28;;;;;;;33.22;15.90;;;5.70;99.90;;;;;;5016437;28;20052;-58
2022/06/02 01:28:41;;;;;;;31.15;14.88;;;5.40;99.90;;;;;;4998087;28;20050;-58
2022/06/02 01:31:14;;;;;;;37.38;16.70;;;5.40;99.90;;;;;;5010921;28;20505;-58
2022/06/02 01:33:52;;;;;;;46.90;17.48;;;6.20;99.90;;;;;;5016381;28;20053;-58
2022/06/02 01:36:43;;;;;;;43.75;18.23;;;5.10;99.90;;;;;;5015079;28;20053;-59
2022/06/02 01:39:33;;;;;;;33.17;16.58;;;5.30;99.90;;;;;;5016196;28;20104;-57
2022/06/02 01:42:18;;;;;;;44.45;18.67;;;5.20;99.90;;;;;;5014879;28;20042;-58
2022/06/02 01:44:58;;;;;;;39.10;18.08;;;5.40;99.90;;;;;;5016116;28;20045;-58
2022/06/02 01:47:40;;;;;;;52.88;18.95;;;5.00;99.90;;;;;;5015897;28;20049;-58
2022/06/02 01:50:05;;;;;;;37.63;18.10;;;5.50;99.90;;;;;;5016072;28;20096;-58
2022/06/02 01:52:40;;;;;;;35.33;18.63;;;5.20;99.90;;;;;;5015727;28;20050;-59
2022/06/02 01:55:47;;;;;;;46.80;18.80;;;5.40;99.90;;;;;;5015605;28;20129;-58
2022/06/02 01:58:40;;;;;;;46.28;19.45;;;5.30;99.90;;;;;;5014584;28;20050;-59
2022/06/02 02:01:12;;;;;;;45.83;19.83;;;;;;;;;;5015520;28;20076;-58
2022/06/02 02:04:10;;;;;;;50.40;20.08;;;4.90;99.90;;;;;;5015807;28;20516;-59
2022/06/02 02:06:58;;;;;;;52.28;20.75;;;5.10;99.90;;;;;;5014393;28;20042;-58
2022/06/02 02:09:45;;;;;;;46.53;18.40;;;5.00;99.90;;;;;;5014716;28;20068;-58
2022/06/02 02:12:43;;;;;;;39.20;18.08;;;5.00;99.90;;;;;;5015589;28;20053;-57
2022/06/02 02:15:27;;;;;;;41.47;18.02;;;4.90;99.90;;;;;;5016014;28;20381;-58
2022/06/02 02:18:24;;;;;;;47.72;19.17;;;4.80;99.90;;;;;;5015468;28;20045;-58
2022/06/02 02:21:13;;;;;;;45.30;20.00;;;4.80;99.90;;;;;;5013994;28;20048;-59
2022/06/02 02:23:57;;;;;;;40.97;19.67;;;4.80;99.90;;;;;;5015508;28;20041;-58
2022/06/02 02:26:33;;;;;;;46.40;20.65;;;4.80;99.90;;;;;;5015437;28;20047;-58
2022/06/02 02:29:36;;;;;;;40.47;18.15;;;4.80;99.90;;;;;;5015325;28;20037;-59
2022/06/02 02:32:07;;;;;;;45.65;20.15;;;4.80;99.90;;;;;;5014106;28;20056;-58
2022/06/02 02:35:13;;;;;;;48.67;20.85;;;4.80;99.90;;;;;;5015140;28;20051;-58
2022/06/02 02:37:54;;;;;;;54.17;21.00;;;4.80;99.90;;;;;;5014088;28;20046;-58
2022/06/02 02:40:55;;;;;;;46.10;20.50;;;4.80;99.90;;;;;;5015083;28;20088;-59
2022/06/02 02:44:08;;;;;;;38.83;19.95;;;4.80;99.90;;;;;;5002920;28;20056;-58
2022/06/02 02:46:41;;;;;;;40.50;19.98;;;4.80;99.90;;;;;;5012971;28;20054;-58
2022/06/02 02:49:33;;;;;;;40.55;19.80;;;4.80;99.90;;;;;;5013471;28;20060;-58
2022/06/02 02:52:37;;;;;;;66.00;21.88;;;4.80;99.90;;;;;;5014998;28;20077;-59
2022/06/02 02:55:26;;;;;;;47.00;21.08;;;4.80;99.90;;;;;;5014823;28;20074;-58
2022/06/02 02:58:21;;;;;;;61.90;23.15;;;4.80;99.90;;;;;;5013896;28;20065;-59
2022/06/02 03:01:02;;;;;;;50.53;21.95;;;4.80;99.90;;;;;;5015077;28;20045;-58
2022/06/02 03:03:41;;;;;;;52.75;21.48;;;4.80;99.90;;;;;;5014531;28;20397;-58
2022/06/02 03:06:20;;;;;;;52.40;22.65;;;4.80;99.90;;;;;;5015012;28;20196;-59
2022/06/02 03:09:08;;;;;;;82.63;26.35;;;5.20;99.90;;;;;;5014252;28;20057;-58
2022/06/02 03:12:01;;;;;;;45.25;21.58;;;4.80;99.90;;;;;;5013115;28;20037;-58
2022/06/02 03:14:42;;;;;;;79.80;23.17;;;4.80;99.90;;;;;;5013085;28;20053;-58
2022/06/02 03:17:38;;;;;;;46.92;22.63;;;4.70;99.90;;;;;;5014264;28;20551;-58
2022/06/02 03:20:25;;;;;;;53.58;23.35;;;4.70;99.90;;;;;;5012647;28;20524;-58
2022/06/02 03:23:20;;;;;;;56.05;24.05;;;4.70;99.90;;;;;;5014149;28;20038;-59
2022/06/02 03:25:50;;;;;;;58.70;23.50;;;4.70;99.90;;;;;;5013400;28;20045;-58
2022/06/02 03:28:28;;;;;;;56.22;24.38;;;4.80;99.90;;;;;;5014723;28;20476;-58
2022/06/02 03:31:09;;;;;;;70.63;25.65;;;4.80;99.90;;;;;;5013383;28;20120;-58
2022/06/02 03:33:57;;;;;;;70.32;24.63;;;4.80;99.90;;;;;;5013997;28;20049;-58
2022/06/02 03:36:44;;;;;;;63.28;25.38;;;4.80;99.90;;;;;;5013416;28;20064;-59
2022/06/02 03:39:33;;;;;;;65.20;24.30;;;4.80;99.90;;;;;;5012648;28;20050;-58
2022/06/02 03:42:04;;;;;;;57.53;24.35;;;4.90;99.90;;;;;;5012686;28;20077;-58
2022/06/02 03:45:04;;;;;;;61.13;25.50;;;4.90;99.90;;;;;;5013986;28;20044;-58
2022/06/02 03:47:32;;;;;;;83.43;27.48;;;6.30;99.90;;;;;;5013219;28;20096;-58
2022/06/02 03:50:09;;;;;;;66.38;26.55;;;5.00;99.90;;;;;;5012465;28;20489;-58
2022/06/02 03:53:11;;;;;;;67.28;27.10;;;5.00;99.90;;;;;;5014025;28;20046;-58
2022/06/02 03:55:58;;;;;;;71.72;27.75;;;5.10;99.90;;;;;;5012335;28;20049;-58
2022/06/02 03:58:38;;;;;;;55.47;25.52;;;5.10;99.90;;;;;;5012600;28;20085;-58
2022/06/02 04:01:11;;;;;;;58.97;25.85;;;5.10;99.90;;;;;;5014003;28;20038;-59
2022/06/02 04:03:57;;;;;;;54.17;25.38;;;5.20;99.90;;;;;;5014318;28;20100;-59
2022/06/02 04:06:25;;;;;;;65.97;27.60;;;5.20;99.90;;;;;;5012610;28;20133;-58
2022/06/02 04:09:20;;;;;;;58.85;25.30;;;5.30;99.90;;;;;;5012226;28;20058;-59
2022/06/02 04:15:03;;;;;;;60.00;28.38;;;5.50;99.90;;;;;;5013623;28;20180;-58
2022/06/02 04:18:00;;;;;;;73.95;30.88;;;5.70;99.90;;;;;;5013394;28;20052;-58
2022/06/02 04:20:41;;;;;;;89.25;30.90;;;5.90;99.90;;;;;;5013374;28;20046;-58
2022/06/02 04:23:33;;;;;;;77.40;29.23;;;6.20;99.90;;;;;;5013533;28;20115;-59
2022/06/02 04:26:27;;;;;;;73.03;28.52;;;6.50;99.90;;;;;;5013842;28;20038;-58
2022/06/02 04:29:11;;;;;;;68.97;28.00;;;6.70;99.90;;;;;;5013441;28;20081;-58
2022/06/02 04:31:55;;;;;;;85.25;27.17;;;6.90;99.90;;;;;;5015652;28;20042;-58
2022/06/02 04:34:35;;;;;;;57.75;23.48;;;7.00;99.90;;;;;;5016135;28;20367;-58
2022/06/02 04:37:05;;;;;;;54.70;23.95;;;7.10;99.90;;;;;;5017191;28;20041;-57
2022/06/02 04:39:58;;;;;;;45.92;21.10;;;7.20;99.90;;;;;;5015310;28;20053;-58
2022/06/02 04:42:35;;;;;;;44.67;22.33;;;7.20;99.90;;;;;;5016569;28;20508;-57
2022/06/02 04:45:08;;;;;;;33.63;19.42;;;7.30;99.90;;;;;;5016642;28;20038;-58
2022/06/02 04:48:12;;;;;;;47.47;22.27;;;7.40;99.90;;;;;;5015519;28;20046;-58
2022/06/02 04:50:46;;;;;;;37.13;20.50;;;7.50;99.90;;;;;;5016482;28;20049;-58
2022/06/02 04:53:51;;;;;;;37.92;20.13;;;7.60;99.90;;;;;;5015279;28;20057;-58
2022/06/02 04:56:32;;;;;;;38.10;20.27;;;7.80;99.90;;;;;;5015036;28;20052;-58
2022/06/02 04:59:24;;;;;;;40.75;22.10;;;7.90;99.90;;;;;;5016301;28;20054;-58
2022/06/02 05:02:32;;;;;;;34.30;21.02;;;8.10;99.90;;;;;;5015921;28;20038;-58
2022/06/02 05:05:27;;;;;;;31.90;19.15;;;8.30;99.90;;;;;;5015888;28;20073;-59
2022/06/02 05:08:05;;;;;;;30.95;20.45;;;8.50;99.90;;;;;;5016008;28;20050;-59
2022/06/02 05:10:59;;;;;;;31.73;20.23;;;8.60;99.90;;;;;;5028844;28;20392;-58
2022/06/02 05:13:54;;;;;;;39.85;21.90;;;8.80;99.90;;;;;;5033107;28;20056;-58
2022/06/02 05:16:56;;;;;;;30.33;19.25;;;9.00;99.90;;;;;;5035540;28;20045;-59
2022/06/02 05:19:49;;;;;;;30.08;18.45;;;9.30;99.90;;;;;;5035340;28;20053;-59
2022/06/02 05:22:40;;;;;;;34.53;21.23;;;10.00;99.90;;;;;;5035478;28;20455;-59
2022/06/02 05:25:34;;;;;;;31.77;22.60;;;10.60;99.90;;;;;;5032832;28;20045;-59
2022/06/02 05:28:35;;;;;;;30.67;22.10;;;10.80;99.90;;;;;;5035106;28;20392;-59
2022/06/02 05:31:21;;;;;;;27.55;21.50;;;10.90;99.90;;;;;;5033136;28;20459;-59
2022/06/02 05:34:15;;;;;;;24.17;19.52;;;11.10;99.90;;;;;;5033875;28;20099;-60
2022/06/02 05:37:17;;;;;;;25.55;18.85;;;11.30;99.90;;;;;;5030844;28;20052;-60
2022/06/02 05:39:42;;;;;;;19.83;15.38;;;11.60;99.90;;;;;;5025078;28;20371;-59
2022/06/02 05:42:34;;;;;;;14.77;12.77;;;12.00;99.90;;;;;;5019774;28;20092;-60
2022/06/02 05:45:24;;;;;;;12.20;9.20;;;12.50;99.90;;;;;;5020840;28;20048;-60
2022/06/02 05:48:20;;;;;;;10.88;9.25;;;13.20;99.90;;;;;;5020679;28;20099;-60
2022/06/02 05:51:04;;;;;;;8.18;7.38;;;15.20;99.90;;;;;;5021127;28;20389;-60
2022/06/02 05:53:55;;;;;;;8.30;5.97;;;17.20;99.90;;;;;;5020800;28;20049;-60
2022/06/02 05:56:21;;;;;;;5.95;4.70;;;16.30;99.90;;;;;;5022080;28;20029;-60
2022/06/02 05:59:07;;;;;;;5.30;4.72;;;16.00;99.90;;;;;;5021328;28;20130;-60
2022/06/02 06:01:36;;;;;;;4.85;4.00;;;15.80;99.90;;;;;;5019873;28;20508;-62
2022/06/02 06:04:35;;;;;;;6.90;4.07;;;15.90;99.90;;;;;;5020041;28;20037;-61
2022/06/02 06:07:14;;;;;;;5.75;3.90;;;15.50;99.90;;;;;;5033558;28;20090;-61
2022/06/02 06:09:39;;;;;;;3.97;3.58;;;15.40;99.90;;;;;;5018336;28;20053;-62
2022/06/02 06:12:14;;;;;;;4.15;2.83;;;15.50;99.90;;;;;;5020048;28;20417;-62
2022/06/02 06:15:06;;;;;;;6.20;3.35;;;15.90;99.90;;;;;;5021508;28;20124;-62
2022/06/02 06:17:56;;;;;;;4.50;3.33;;;16.30;99.90;;;;;;5021710;28;20034;-62
2022/06/02 06:20:47;;;;;;;4.82;2.58;;;17.60;99.90;;;;;;5021454;28;20447;-62
2022/06/02 06:23:27;;;;;;;3.67;2.20;;;19.10;99.90;;;;;;5020330;28;20045;-62
2022/06/02 06:26:00;;;;;;;3.10;1.92;;;21.40;99.90;;;;;;5018750;28;20057;-62
2022/06/02 06:28:32;;;;;;;4.18;1.92;;;23.30;99.90;;;;;;5019048;28;20043;-62
2022/06/02 06:31:17;;;;;;;4.00;2.00;;;24.10;96.60;;;;;;5020650;28;20614;-62
2022/06/02 06:34:10;;;;;;;3.70;1.67;;;25.50;92.80;;;;;;5019218;28;20374;-63
2022/06/02 06:36:38;;;;;;;2.90;1.55;;;26.90;85.10;;;;;;5032884;28;20565;-63
2022/06/02 06:39:10;;;;;;;2.60;1.38;;;28.00;81.00;;;;;;5035044;28;20049;-63
2022/06/02 06:41:50;;;;;;;2.25;1.20;;;28.80;74.20;;;;;;5020469;28;20375;-63
2022/06/02 06:44:43;;;;;;;3.40;1.25;;;29.70;73.00;;;;;;5019277;28;20386;-63
2022/06/02 06:47:29;;;;;;;2.80;1.38;;;30.10;67.70;;;;;;5019092;28;20042;-64
2022/06/02 06:50:25;;;;;;;4.65;1.23;;;30.40;64.60;;;;;;5019071;28;20183;-64
2022/06/02 06:53:15;;;;;;;2.30;1.25;;;30.90;63.90;;;;;;5019199;28;20438;-64
2022/06/02 06:55:53;;;;;;;2.33;0.88;;;31.70;61.30;;;;;;5018724;28;20089;-64
2022/06/02 06:58:41;;;;;;;1.52;0.52;;;30.90;60.00;;;;;;5018906;28;20105;-64
2022/06/02 07:01:13;;;;;;;2.15;0.88;;;31.00;58.70;;;;;;5020178;28;20067;-65
2022/06/02 07:03:54;;;;;;;6.28;0.45;;;30.80;58.70;;;;;;5018048;28;20040;-64
2022/06/02 07:06:33;;;;;;;2.10;0.38;;;31.40;56.50;;;;;;5010153;28;20103;-64
2022/06/02 07:09:19;;;;;;;1.83;0.40;;;32.00;56.00;;;;;;5008347;28;20053;-64
2022/06/02 07:14:58;;;;;;;2.83;0.43;;;32.90;53.20;;;;;;5007957;28;20061;-65
2022/06/02 07:17:37;;;;;;;1.58;0.52;;;32.90;52.60;;;;;;5008077;28;20042;-65
2022/06/02 07:20:30;;;;;;;2.05;0.52;;;32.80;49.70;;;;;;5017147;28;20044;-65
2022/06/02 07:23:14;;;;;;;1.75;0.40;;;32.80;51.80;;;;;;5015366;28;20042;-65
2022/06/02 07:25:57;;;;;;;1.40;0.40;;;32.80;51.70;;;;;;5018504;28;20144;-66
2022/06/02 07:28:47;;;;;;;2.08;0.43;;;33.70;51.60;;;;;;5019673;28;20128;-66
2022/06/02 07:31:39;;;;;;;1.43;0.40;;;33.40;51.00;;;;;;5020032;28;20041;-64
2022/06/02 07:34:23;;;;;;;2.10;0.38;;;33.30;51.30;;;;;;5010395;28;20045;-64
2022/06/02 07:37:29;;;;;;;2.90;0.30;;;33.40;50.10;;;;;;5026744;28;20135;-61
2022/06/02 07:40:44;;;;;;;2.35;0.45;;;33.70;48.40;;;;;;5015726;28;20061;-61
2022/06/02 07:43:34;;;;;;;1.58;0.30;;;33.30;49.20;;;;;;5013322;28;20060;-61
2022/06/02 07:46:17;;;;;;;1.73;0.55;;;33.30;48.00;;;;;;5029955;28;20064;-61
2022/06/02 07:48:55;;;;;;;1.33;0.30;;;33.50;48.10;;;;;;5022065;28;20111;-61
2022/06/02 07:51:41;;;;;;;1.52;0.20;;;32.50;47.10;;;;;;5030458;28;20045;-61
2022/06/02 07:54:19;;;;;;;2.33;0.20;;;30.50;47.40;;;;;;5030163;28;20033;-61
2022/06/02 07:57:14;;;;;;;1.77;0.30;;;29.90;50.10;;;;;;5030048;28;20119;-61
2022/06/02 07:59:58;;;;;;;1.17;0.28;;;31.10;51.90;;;;;;5024951;28;20045;-61
2022/06/02 08:03:04;;;;;;;0.80;0.22;;;31.70;49.60;;;;;;5021456;28;20048;-61
2022/06/02 08:05:36;;;;;;;1.13;0.30;;;30.40;49.00;;;;;;5018031;28;20061;-61
2022/06/02 08:08:29;;;;;;;2.15;0.40;;;28.90;50.30;;;;;;5021850;28;20059;-61
2022/06/02 08:10:58;;;;;;;1.60;0.30;;;28.80;51.10;;;;;;5023782;28;20117;-61
2022/06/02 08:13:45;;;;;;;1.05;0.30;;;29.90;51.90;;;;;;5023254;28;20076;-61
2022/06/02 08:16:13;;;;;;;4.53;0.60;;;31.30;50.70;;;;;;5022098;28;20057;-61
2022/06/02 08:19:23;;;;;;;3.15;0.40;;;32.80;49.70;;;;;;5021238;28;20787;-61
2022/06/02 08:21:53;;;;;;;2.70;0.30;;;33.10;48.30;;;;;;5015577;28;20095;-62
2022/06/02 08:24:37;;;;;;;4.28;0.40;;;31.30;47.40;;;;;;5020347;28;20568;-61
2022/06/02 08:27:27;;;;;;;2.05;0.30;;;29.50;48.20;;;;;;5020269;28;20052;-61
2022/06/02 08:30:07;;;;;;;1.92;0.45;;;28.10;50.10;;;;;;5031558;28;20049;-61
2022/06/02 08:33:04;;;;;;;1.27;0.33;;;29.20;51.70;;;;;;5032348;28;20396;-61
2022/06/02 08:35:44;;;;;;;3.63;0.30;;;30.70;50.20;;;;;;5030583;28;20103;-61
2022/06/02 08:38:34;;;;;;;3.58;0.40;;;30.60;48.60;;;;;;5030772;28;20080;-61
2022/06/02 08:41:30;;;;;;;4.28;0.50;;;31.60;48.80;;;;;;5031945;28;20119;-62
2022/06/02 08:44:08;;;;;;;1.30;0.40;;;31.60;48.20;;;;;;5023612;28;20065;-52
2022/06/02 08:46:44;;;;;;;3.45;0.90;;;30.60;47.90;;;;;;4981546;28;20461;-47
2022/06/02 08:49:29;;;;;;;2.25;0.40;;;29.20;48.80;;;;;;5007647;28;20413;-47
2022/06/02 08:52:16;;;;;;;3.35;0.40;;;28.80;50.40;;;;;;5008610;28;20041;-46
2022/06/02 08:55:09;;;;;;;1.00;0.40;;;29.70;50.90;;;;;;5008798;28;20046;-49
2022/06/02 08:57:58;;;;;;;1.77;0.63;;;30.40;50.10;;;;;;5009298;28;20130;-53
2022/06/02 09:00:52;;;;;;;2.25;0.50;;;31.70;49.90;;;;;;5008543;28;20162;-51
2022/06/02 09:03:21;;;;;;;7.20;0.38;;;33.00;48.40;;;;;;5008702;28;20145;-47
2022/06/02 09:06:16;;;;;;;3.03;0.68;;;34.40;46.80;;;;;;5008641;28;20049;-50
2022/06/02 09:09:19;;;;;;;4.82;0.50;;;34.30;45.30;;;;;;5008703;28;20054;-54
2022/06/02 09:11:44;;;;;;;3.42;0.40;;;32.30;45.60;;;;;;5008665;28;20560;-47
2022/06/02 09:14:28;;;;;;;1.75;0.20;;;31.20;46.90;;;;;;5006669;28;20045;-46
2022/06/02 09:17:25;;;;;;;2.22;0.30;;;30.90;48.60;;;;;;5006069;28;20493;-46
2022/06/02 09:20:34;;;;;;;1.33;0.38;;;32.00;48.20;;;;;;5009185;28;20374;-51
2022/06/02 09:23:15;;;;;;;2.78;0.40;;;34.00;47.10;;;;;;5007779;28;20504;-47
2022/06/02 09:25:51;;;;;;;3.65;0.30;;;36.90;45.00;;;;;;5024847;28;20281;-53
2022/06/02 09:28:33;;;;;;;1.77;0.32;;;36.10;43.60;;;;;;5028136;28;20045;-54
2022/06/02 09:31:17;;;;;;;1.20;0.30;;;34.80;43.30;;;;;;5027886;28;20043;-52
2022/06/02 09:34:04;;;;;;;1.98;0.40;;;32.90;43.40;;;;;;5025490;28;20052;-49
2022/06/02 09:36:45;;;;;;;1.55;0.40;;;31.00;45.20;;;;;;5010377;28;20168;-48
2022/06/02 09:39:39;;;;;;;2.80;0.32;;;29.90;47.50;;;;;;5007549;28;20122;-51
2022/06/02 09:42:52;;;;;;;5.45;0.60;;;30.90;48.30;;;;;;5007489;28;20103;-48
2022/06/02 09:45:38;;;;;;;1.45;0.22;;;33.40;47.40;;;;;;5007824;28;20050;-52
2022/06/02 09:48:32;;;;;;;3.08;0.60;;;35.20;44.10;;;;;;4982526;28;20054;-48
2022/06/02 09:51:09;;;;;;;1.80;0.40;;;35.20;42.00;;;;;;5010821;28;20045;-53
2022/06/02 09:54:24;;;;;;;4.65;0.60;;;33.50;43.40;;;;;;5010554;28;20409;-52
2022/06/02 10:00:38;;;;;;;2.58;0.40;;;29.90;47.20;;;;;;5010549;28;20060;-51
2022/06/02 10:03:41;;;;;;;4.03;0.50;;;28.20;49.10;;;;;;5010604;28;20037;-49
2022/06/02 10:06:27;;;;;;;3.05;0.65;;;27.20;51.70;;;;;;5010846;28;20473;-49
2022/06/02 10:09:27;;;;;;;2.00;0.50;;;27.90;53.10;;;;;;5009005;28;20429;-48
2022/06/02 10:15:20;;;;;;;1.73;0.50;;;30.20;51.40;;;;;;5010192;28;20056;-52
2022/06/02 10:17:56;;;;;;;3.75;0.60;;;31.70;48.20;;;;;;5010223;28;20072;-51
2022/06/02 10:20:52;;;;;;;2.40;0.45;;;33.00;45.40;;;;;;5010329;28;20272;-50
2022/06/02 10:23:37;;;;;;;3.08;0.45;;;32.20;45.70;;;;;;5012751;28;20072;-51
2022/06/02 10:26:27;;;;;;;2.45;0.40;;;30.70;46.20;;;;;;5020605;28;20037;-49
2022/06/02 10:29:07;;;;;;;1.00;0.40;;;29.10;48.40;;;;;;5019977;28;20509;-50
2022/06/02 10:31:56;;;;;;;2.13;0.40;;;27.80;48.50;;;;;;5018378;28;20038;-47
2022/06/02 10:34:43;;;;;;;1.45;0.40;;;27.50;51.00;;;;;;5020131;28;20052;-49
2022/06/02 10:37:33;;;;;;;1.88;0.60;;;29.00;50.80;;;;;;5018330;28;20049;-47
2022/06/02 10:39:59;;;;;;;2.05;0.30;;;30.30;48.10;;;;;;5020368;28;20048;-46
2022/06/02 10:42:55;;;;;;;1.38;0.20;;;31.20;47.00;;;;;;5020094;28;20030;-47
2022/06/02 10:45:33;;;;;;;4.68;0.60;;;31.80;47.40;;;;;;5020476;28;20037;-47
2022/06/02 10:48:10;;;;;;;1.75;0.30;;;30.80;45.80;;;;;;5020916;28;20041;-46
2022/06/02 10:51:00;;;;;;;3.08;0.90;;;29.40;49.80;;;;;;5020246;28;20037;-47
2022/06/02 10:53:42;;;;;;;5.30;0.57;;;;;;;;;;5020498;28;20040;-48
2022/06/02 10:56:13;;;;;;;1.92;0.40;;;27.10;50.40;;;;;;5022085;28;20091;-46
2022/06/02 10:59:14;;;;;;;1.92;0.38;;;26.20;52.30;;;;;;5018766;28;20501;-47
2022/06/02 11:02:17;;;;;;;2.53;0.40;;;25.40;53.00;;;;;;5020209;28;20406;-46
2022/06/02 11:05:11;;;;;;;1.48;0.30;;;24.90;53.90;;;;;;5019907;28;20481;-47
2022/06/02 11:07:55;;;;;;;4.03;0.30;;;24.40;52.90;;;;;;5019225;28;20100;-47
2022/06/02 11:11:01;;;;;;;3.17;0.20;;;24.10;54.50;;;;;;5035191;28;20049;-48
2022/06/02 11:13:53;;;;;;;3.58;0.35;;;23.90;55.50;;;;;;5017752;28;20099;-47
2022/06/02 11:16:51;;;;;;;1.45;0.50;;;23.50;57.00;;;;;;5019753;28;20045;-46
2022/06/02 11:19:52;;;;;;;2.88;0.45;;;23.00;57.80;;;;;;5020392;28;20038;-45
2022/06/02 11:22:57;;;;;;;6.03;0.85;;;22.60;60.30;;;;;;5018980;28;20041;-47
2022/06/02 11:25:57;;;;;;;3.83;0.90;;;22.10;66.10;;;;;;4995487;28;20046;-47
2022/06/02 11:28:44;;;;;;;2.67;0.30;;;21.90;64.50;;;;;;4946166;28;20054;-49
2022/06/02 11:31:23;;;;;;;9.55;0.85;;;21.90;64.70;;;;;;5005347;28;20100;-47
2022/06/02 11:34:23;;;;;;;4.35;0.50;;;21.90;70.40;;;;;;5008994;28;20505;-47
2022/06/02 11:37:10;;;;;;;2.47;0.30;;;21.90;69.10;;;;;;5008758;28;20129;-46
2022/06/02 11:40:13;;;;;;;2.58;0.40;;;21.90;73.50;;;;;;5013536;28;20048;-47
2022/06/02 11:42:54;;;;;;;2.45;0.57;;;22.50;82.40;;;;;;5029170;28;20049;-47
2022/06/02 11:45:41;;;;;;;3.00;0.52;;;22.00;72.20;;;;;;5028821;28;20504;-47
2022/06/02 11:48:20;;;;;;;1.60;0.30;;;22.60;70.10;;;;;;5028685;28;20396;-50
2022/06/02 11:50:59;;;;;;;2.15;0.40;;;22.80;70.00;;;;;;5024336;28;20050;-46
2022/06/02 11:53:57;;;;;;;1.85;0.38;;;23.00;67.10;;;;;;5024247;28;20053;-49
2022/06/02 11:56:51;;;;;;;4.30;0.50;;;23.20;68.40;;;;;;5028019;28;20044;-46
2022/06/02 11:59:19;;;;;;;3.95;0.47;;;23.40;70.90;;;;;;5026672;28;20045;-48
2022/06/02 12:02:13;;;;;;;0.77;0.30;;;23.50;69.20;;;;;;5027851;28;20037;-48
2022/06/02 12:04:54;;;;;;;2.45;0.40;;;23.50;67.10;;;;;;5008644;28;20066;-46
2022/06/02 12:07:55;;;;;;;1.42;0.30;;;23.50;65.80;;;;;;5008384;28;20079;-47
2022/06/02 12:10:50;;;;;;;3.63;0.68;;;23.10;66.90;;;;;;5008678;28;20124;-47
2022/06/02 12:13:46;;;;;;;4.95;0.50;;;23.10;67.60;;;;;;5008993;28;20081;-48
2022/06/02 12:16:25;;;;;;;1.20;0.20;;;23.10;68.40;;;;;;5008423;28;20125;-48
2022/06/02 12:19:20;;;;;;;3.38;0.35;;;23.00;70.60;;;;;;5008272;28;20045;-46
2022/06/02 12:22:40;;;;;;;2.13;0.82;;;23.10;68.10;;;;;;5008857;28;20052;-50
2022/06/02 12:25:24;;;;;;;3.22;0.50;;;22.90;69.50;;;;;;5005763;28;20042;-46
2022/06/02 12:28:20;;;;;;;8.30;0.57;;;22.60;68.80;;;;;;5007980;28;20536;-46
2022/06/02 12:31:12;;;;;;;1.77;0.20;;;22.30;69.20;;;;;;5008852;28;20449;-46
2022/06/02 12:33:57;;;;;;;4.00;0.50;;;22.20;68.00;;;;;;5008654;28;20334;-48
2022/06/02 12:36:34;;;;;;;2.30;0.40;;;22.20;70.50;;;;;;5008200;28;20038;-46
2022/06/02 12:39:43;;;;;;;2.35;0.60;;;22.20;72.40;;;;;;5007829;28;20380;-47
2022/06/02 12:42:43;;;;;;;2.40;0.50;;;22.10;69.90;;;;;;5008236;28;20046;-45
2022/06/02 12:45:46;;;;;;;3.78;0.35;;;22.00;69.10;;;;;;5007726;28;20552;-47
2022/06/02 12:48:46;;;;;;;4.32;0.55;;;21.80;70.70;;;;;;5007364;28;20409;-50
2022/06/02 12:51:26;;;;;;;1.35;0.40;;;21.30;64.30;;;;;;5008856;28;20692;-50
2022/06/02 12:54:13;;;;;;;1.48;0.25;;;21.00;62.00;;;;;;5012295;28;20116;-50
2022/06/02 12:56:54;;;;;;;4.03;0.45;;;20.80;63.20;;;;;;5012051;28;20041;-46
2022/06/02 12:59:50;;;;;;;2.88;0.50;;;20.70;63.30;;;;;;5012075;28;20045;-47
2022/06/02 13:02:22;;;;;;;1.60;0.55;;;20.70;66.50;;;;;;5011200;28;20030;-47
2022/06/02 13:05:28;;;;;;;9.13;0.50;;;20.80;66.90;;;;;;5007862;28;20107;-41
2022/06/02 13:08:32;;;;;;;0.73;0.38;;;20.90;68.00;;;;;;5008340;28;20061;-58
2022/06/02 13:11:27;;;;;;;1.33;0.30;;;21.10;66.40;;;;;;5010018;28;20073;-58
2022/06/02 13:14:17;;;;;;;2.78;0.50;;;21.10;64.70;;;;;;5009932;28;20072;-60
2022/06/02 13:16:58;;;;;;;4.38;0.50;;;21.10;65.10;;;;;;5010953;28;20045;-48
2022/06/02 13:19:48;;;;;;;3.80;0.40;;;21.20;66.80;;;;;;5010420;28;20038;-48
2022/06/02 13:22:35;;;;;;;2.63;0.50;;;21.30;67.40;;;;;;5010053;28;20125;-48
2022/06/02 13:25:38;;;;;;;5.00;0.60;;;21.20;66.60;;;;;;5010425;28;20042;-46
2022/06/02 13:28:22;;;;;;;3.10;0.40;;;21.30;69.10;;;;;;5010121;28;20077;-48
2022/06/02 13:31:15;;;;;;;3.50;0.50;;;21.20;66.30;;;;;;5010855;28;20108;-45
2022/06/02 13:34:01;;;;;;;1.85;0.40;;;21.50;67.00;;;;;;5009718;28;20034;-45
2022/06/02 13:36:50;;;;;;;4.10;0.47;;;21.00;65.00;;;;;;5009606;28;20103;-49
2022/06/02 13:39:39;;;;;;;1.23;0.60;;;20.90;67.30;;;;;;5010413;28;20108;-46
2022/06/02 13:42:26;;;;;;;2.17;0.30;;;20.70;68.00;;;;;;5009277;28;20093;-50
2022/06/02 13:45:10;;;;;;;1.63;0.22;;;20.60;67.90;;;;;;5009517;28;20046;-50
2022/06/02 13:48:13;;;;;;;2.83;0.40;;;20.60;68.60;;;;;;5008702;28;20545;-60
2022/06/02 13:51:16;;;;;;;1.75;0.20;;;20.50;66.40;;;;;;5008936;28;20088;-60
2022/06/02 14:00:12;;;;;;;4.82;0.55;;;20.50;67.10;;;;;;5009045;28;20104;-60
2022/06/02 14:02:56;;;;;;;4.10;0.47;;;20.70;69.00;;;;;;5010095;28;20404;-60
2022/06/02 14:05:49;;;;;;;3.00;0.60;;;20.80;69.00;;;;;;5010425;28;20042;-59
2022/06/02 14:08:53;;;;;;;1.75;0.60;;;20.90;66.10;;;;;;5010469;28;20390;-59
2022/06/02 14:11:44;;;;;;;3.70;0.63;;;20.80;65.90;;;;;;5011064;28;20468;-59
2022/06/02 14:14:23;;;;;;;2.97;0.40;;;20.60;65.10;;;;;;5010824;28;20076;-60
2022/06/02 14:16:52;;;;;;;2.45;0.30;;;20.50;66.10;;;;;;5009402;28;20847;-60
2022/06/02 14:19:47;;;;;;;1.38;0.30;;;20.40;64.50;;;;;;5009026;28;20508;-59
2022/06/02 14:22:36;;;;;;;2.17;0.30;;;20.40;63.30;;;;;;5010522;28;20501;-59
2022/06/02 14:25:05;;;;;;;11.77;1.23;;;20.20;62.10;;;;;;5008762;28;20041;-60
2022/06/02 14:27:50;;;;;;;2.00;0.40;;;20.20;65.30;;;;;;5008947;28;20044;-60
2022/06/02 14:30:22;;;;;;;5.40;0.40;;;20.20;66.30;;;;;;5010662;28;20050;-59
2022/06/02 14:33:00;;;;;;;0.80;0.30;;;20.20;67.90;;;;;;5010550;28;20041;-59
2022/06/02 14:35:51;;;;;;;4.43;0.35;;;20.20;67.00;;;;;;5009852;28;20046;-60
2022/06/02 14:38:28;;;;;;;1.88;0.30;;;20.10;67.40;;;;;;5010122;28;20105;-59
2022/06/02 14:41:09;;;;;;;2.38;0.35;;;19.90;67.20;;;;;;5009470;28;20094;-58
2022/06/02 14:43:38;;;;;;;3.75;0.55;;;19.80;65.90;;;;;;5009964;28;20124;-59
2022/06/02 14:46:24;;;;;;;3.20;0.30;;;19.70;67.90;;;;;;5009989;28;20088;-59